sensor_id;sensor_type;location;lat;lon;timestamp;P1;durP1;ratioP1;P2;durP2;ratioP2
14748;SDS011;7466;53.574;9.976;2023-09-19T00:02:03;2.10;;;1.90;;
14748;SDS011;7466;53.574;9.976;2023-09-19T00:04:31;2.10;;;2.00;;
14748;SDS011;7466;53.574;9.976;2023-09-19T00:06:58;3.93;;;2.00;;
14748;SDS011;7466;53.574;9.976;2023-09-19T00:09:24;3.83;;;2.50;;
14748;SDS011;7466;53.574;9.976;2023-09-19T00:11:52;5.60;;;2.33;;
14748;SDS011;7466;53.574;9.976;2023-09-19T00:14:19;2.40;;;2.20;;
14748;SDS011;7466;53.574;9.976;2023-09-19T00:16:49;3.47;;;2.57;;
14748;SDS011;7466;53.574;9.976;2023-09-19T00:19:17;3.03;;;2.27;;
14748;SDS011;7466;53.574;9.976;2023-09-19T00:21:44;3.17;;;2.50;;
14748;SDS011;7466;53.574;9.976;2023-09-19T00:24:12;2.80;;;2.50;;
14748;SDS011;7466;53.574;9.976;2023-09-19T00:26:39;4.07;;;2.40;;
14748;SDS011;7466;53.574;9.976;2023-09-19T00:29:05;4.30;;;2.50;;
14748;SDS011;7466;53.574;9.976;2023-09-19T00:31:33;3.90;;;2.43;;
14748;SDS011;7466;53.574;9.976;2023-09-19T00:34:02;2.70;;;2.50;;
14748;SDS011;7466;53.574;9.976;2023-09-19T00:36:32;2.50;;;2.30;;
14748;SDS011;7466;53.574;9.976;2023-09-19T00:38:59;3.57;;;2.40;;
14748;SDS011;7466;53.574;9.976;2023-09-19T00:41:27;3.30;;;2.50;;
14748;SDS011;7466;53.574;9.976;2023-09-19T00:43:55;4.87;;;2.40;;
14748;SDS011;7466;53.574;9.976;2023-09-19T00:46:22;2.90;;;2.70;;
14748;SDS011;7466;53.574;9.976;2023-09-19T00:48:49;3.37;;;2.50;;
14748;SDS011;7466;53.574;9.976;2023-09-19T00:51:15;3.13;;;2.63;;
14748;SDS011;7466;53.574;9.976;2023-09-19T00:53:46;3.77;;;2.70;;
14748;SDS011;7466;53.574;9.976;2023-09-19T00:56:13;5.03;;;2.70;;
14748;SDS011;7466;53.574;9.976;2023-09-19T00:58:43;4.83;;;2.83;;
14748;SDS011;7466;53.574;9.976;2023-09-19T01:01:11;8.40;;;3.00;;
14748;SDS011;7466;53.574;9.976;2023-09-19T01:03:39;6.17;;;2.80;;
14748;SDS011;7466;53.574;9.976;2023-09-19T01:06:06;3.33;;;2.83;;
14748;SDS011;7466;53.574;9.976;2023-09-19T01:08:33;5.50;;;3.10;;
14748;SDS011;7466;53.574;9.976;2023-09-19T01:11:05;6.60;;;3.37;;
14748;SDS011;7466;53.574;9.976;2023-09-19T01:13:41;4.27;;;2.90;;
14748;SDS011;7466;53.574;9.976;2023-09-19T01:16:16;3.50;;;3.20;;
14748;SDS011;7466;53.574;9.976;2023-09-19T01:18:52;5.77;;;3.03;;
14748;SDS011;7466;53.574;9.976;2023-09-19T01:21:26;7.17;;;3.33;;
14748;SDS011;7466;53.574;9.976;2023-09-19T01:24:05;7.13;;;3.40;;
14748;SDS011;7466;53.574;9.976;2023-09-19T01:26:55;3.73;;;3.10;;
14748;SDS011;7466;53.574;9.976;2023-09-19T01:29:38;4.80;;;3.30;;
14748;SDS011;7466;53.574;9.976;2023-09-19T01:32:11;5.63;;;3.23;;
14748;SDS011;7466;53.574;9.976;2023-09-19T01:34:45;8.40;;;3.43;;
14748;SDS011;7466;53.574;9.976;2023-09-19T01:37:15;4.40;;;2.50;;
14748;SDS011;7466;53.574;9.976;2023-09-19T01:39:45;4.60;;;2.70;;
14748;SDS011;7466;53.574;9.976;2023-09-19T01:42:18;4.73;;;2.60;;
14748;SDS011;7466;53.574;9.976;2023-09-19T01:44:57;4.47;;;2.63;;
14748;SDS011;7466;53.574;9.976;2023-09-19T01:47:31;5.13;;;2.77;;
14748;SDS011;7466;53.574;9.976;2023-09-19T01:50:02;5.70;;;3.00;;
14748;SDS011;7466;53.574;9.976;2023-09-19T01:52:38;4.63;;;2.50;;
14748;SDS011;7466;53.574;9.976;2023-09-19T01:55:11;6.30;;;2.47;;
14748;SDS011;7466;53.574;9.976;2023-09-19T01:57:45;4.47;;;2.37;;
14748;SDS011;7466;53.574;9.976;2023-09-19T02:00:18;5.93;;;2.60;;
14748;SDS011;7466;53.574;9.976;2023-09-19T02:02:50;4.47;;;2.20;;
14748;SDS011;7466;53.574;9.976;2023-09-19T02:05:24;4.57;;;2.40;;
14748;SDS011;7466;53.574;9.976;2023-09-19T02:07:52;5.23;;;2.53;;
14748;SDS011;7466;53.574;9.976;2023-09-19T02:10:20;5.47;;;2.47;;
14748;SDS011;7466;53.574;9.976;2023-09-19T02:12:47;3.20;;;2.40;;
14748;SDS011;7466;53.574;9.976;2023-09-19T02:15:14;4.43;;;2.70;;
14748;SDS011;7466;53.574;9.976;2023-09-19T02:17:42;5.10;;;2.80;;
14748;SDS011;7466;53.574;9.976;2023-09-19T02:20:11;5.67;;;3.20;;
14748;SDS011;7466;53.574;9.976;2023-09-19T02:22:40;7.13;;;3.47;;
14748;SDS011;7466;53.574;9.976;2023-09-19T02:25:07;4.37;;;3.27;;
14748;SDS011;7466;53.574;9.976;2023-09-19T02:27:34;6.33;;;3.90;;
14748;SDS011;7466;53.574;9.976;2023-09-19T02:30:01;7.53;;;4.00;;
14748;SDS011;7466;53.574;9.976;2023-09-19T02:32:29;4.30;;;3.90;;
14748;SDS011;7466;53.574;9.976;2023-09-19T02:34:56;4.43;;;4.00;;
14748;SDS011;7466;53.574;9.976;2023-09-19T02:37:25;4.40;;;4.00;;
14748;SDS011;7466;53.574;9.976;2023-09-19T02:39:51;7.20;;;4.13;;
14748;SDS011;7466;53.574;9.976;2023-09-19T02:42:18;5.90;;;4.20;;
14748;SDS011;7466;53.574;9.976;2023-09-19T02:44:45;7.57;;;4.10;;
14748;SDS011;7466;53.574;9.976;2023-09-19T02:47:13;5.57;;;4.30;;
14748;SDS011;7466;53.574;9.976;2023-09-19T02:49:41;10.03;;;4.10;;
14748;SDS011;7466;53.574;9.976;2023-09-19T02:52:08;6.73;;;3.90;;
14748;SDS011;7466;53.574;9.976;2023-09-19T02:54:37;4.40;;;3.87;;
14748;SDS011;7466;53.574;9.976;2023-09-19T02:57:06;4.30;;;4.00;;
14748;SDS011;7466;53.574;9.976;2023-09-19T02:59:34;5.20;;;3.57;;
14748;SDS011;7466;53.574;9.976;2023-09-19T03:02:02;7.57;;;3.30;;
14748;SDS011;7466;53.574;9.976;2023-09-19T03:04:29;5.57;;;3.80;;
14748;SDS011;7466;53.574;9.976;2023-09-19T03:06:58;4.70;;;3.43;;
14748;SDS011;7466;53.574;9.976;2023-09-19T03:09:26;5.43;;;3.20;;
14748;SDS011;7466;53.574;9.976;2023-09-19T03:11:54;7.27;;;3.40;;
14748;SDS011;7466;53.574;9.976;2023-09-19T03:14:21;4.73;;;3.07;;
14748;SDS011;7466;53.574;9.976;2023-09-19T03:16:48;6.70;;;3.13;;
14748;SDS011;7466;53.574;9.976;2023-09-19T03:19:15;6.73;;;2.60;;
14748;SDS011;7466;53.574;9.976;2023-09-19T03:21:42;7.43;;;3.43;;
14748;SDS011;7466;53.574;9.976;2023-09-19T03:24:09;6.27;;;2.80;;
14748;SDS011;7466;53.574;9.976;2023-09-19T03:26:36;4.33;;;2.70;;
14748;SDS011;7466;53.574;9.976;2023-09-19T03:29:04;4.47;;;2.60;;
14748;SDS011;7466;53.574;9.976;2023-09-19T03:31:33;8.37;;;2.97;;
14748;SDS011;7466;53.574;9.976;2023-09-19T03:34:02;11.40;;;2.60;;
14748;SDS011;7466;53.574;9.976;2023-09-19T03:36:29;6.77;;;3.00;;
14748;SDS011;7466;53.574;9.976;2023-09-19T03:38:56;4.67;;;3.10;;
14748;SDS011;7466;53.574;9.976;2023-09-19T03:41:22;6.67;;;3.10;;
14748;SDS011;7466;53.574;9.976;2023-09-19T03:43:49;7.60;;;2.83;;
14748;SDS011;7466;53.574;9.976;2023-09-19T03:46:17;3.73;;;2.60;;
14748;SDS011;7466;53.574;9.976;2023-09-19T03:48:44;7.17;;;3.37;;
14748;SDS011;7466;53.574;9.976;2023-09-19T03:51:11;6.47;;;2.87;;
14748;SDS011;7466;53.574;9.976;2023-09-19T03:53:37;6.00;;;2.70;;
14748;SDS011;7466;53.574;9.976;2023-09-19T03:56:04;5.07;;;2.67;;
14748;SDS011;7466;53.574;9.976;2023-09-19T03:58:31;3.40;;;2.30;;
14748;SDS011;7466;53.574;9.976;2023-09-19T04:01:00;3.33;;;2.50;;
14748;SDS011;7466;53.574;9.976;2023-09-19T04:03:28;6.00;;;2.73;;
14748;SDS011;7466;53.574;9.976;2023-09-19T04:06:00;4.30;;;2.17;;
14748;SDS011;7466;53.574;9.976;2023-09-19T04:08:27;3.07;;;2.40;;
14748;SDS011;7466;53.574;9.976;2023-09-19T04:10:54;5.83;;;2.60;;
14748;SDS011;7466;53.574;9.976;2023-09-19T04:13:21;7.03;;;2.30;;
14748;SDS011;7466;53.574;9.976;2023-09-19T04:18:24;5.20;;;2.23;;
14748;SDS011;7466;53.574;9.976;2023-09-19T04:20:53;4.80;;;2.40;;
14748;SDS011;7466;53.574;9.976;2023-09-19T04:23:31;4.93;;;1.90;;
14748;SDS011;7466;53.574;9.976;2023-09-19T04:25:58;3.80;;;1.83;;
14748;SDS011;7466;53.574;9.976;2023-09-19T04:28:28;5.97;;;2.10;;
14748;SDS011;7466;53.574;9.976;2023-09-19T04:30:56;3.37;;;2.47;;
14748;SDS011;7466;53.574;9.976;2023-09-19T04:33:22;5.23;;;1.90;;
14748;SDS011;7466;53.574;9.976;2023-09-19T04:35:55;5.53;;;2.27;;
14748;SDS011;7466;53.574;9.976;2023-09-19T04:38:25;3.60;;;2.00;;
14748;SDS011;7466;53.574;9.976;2023-09-19T04:40:56;6.10;;;2.30;;
14748;SDS011;7466;53.574;9.976;2023-09-19T04:43:24;6.37;;;2.33;;
14748;SDS011;7466;53.574;9.976;2023-09-19T04:45:50;5.27;;;2.37;;
14748;SDS011;7466;53.574;9.976;2023-09-19T04:48:20;3.70;;;1.90;;
14748;SDS011;7466;53.574;9.976;2023-09-19T04:50:49;3.93;;;1.90;;
14748;SDS011;7466;53.574;9.976;2023-09-19T04:53:17;4.67;;;2.00;;
14748;SDS011;7466;53.574;9.976;2023-09-19T04:55:49;6.50;;;2.53;;
14748;SDS011;7466;53.574;9.976;2023-09-19T04:58:17;5.93;;;2.27;;
14748;SDS011;7466;53.574;9.976;2023-09-19T05:00:44;4.93;;;2.10;;
14748;SDS011;7466;53.574;9.976;2023-09-19T05:03:11;5.73;;;2.33;;
14748;SDS011;7466;53.574;9.976;2023-09-19T05:05:38;8.10;;;2.53;;
14748;SDS011;7466;53.574;9.976;2023-09-19T05:08:09;4.70;;;2.13;;
14748;SDS011;7466;53.574;9.976;2023-09-19T05:10:37;5.13;;;2.63;;
14748;SDS011;7466;53.574;9.976;2023-09-19T05:13:04;16.10;;;2.70;;
14748;SDS011;7466;53.574;9.976;2023-09-19T05:15:32;9.53;;;2.40;;
14748;SDS011;7466;53.574;9.976;2023-09-19T05:18:02;5.67;;;2.20;;
14748;SDS011;7466;53.574;9.976;2023-09-19T05:20:30;4.80;;;2.37;;
14748;SDS011;7466;53.574;9.976;2023-09-19T05:23:00;6.27;;;2.53;;
14748;SDS011;7466;53.574;9.976;2023-09-19T05:25:28;5.17;;;2.03;;
14748;SDS011;7466;53.574;9.976;2023-09-19T05:27:57;6.37;;;2.47;;
14748;SDS011;7466;53.574;9.976;2023-09-19T05:30:25;4.23;;;1.97;;
14748;SDS011;7466;53.574;9.976;2023-09-19T05:32:55;6.60;;;2.27;;
14748;SDS011;7466;53.574;9.976;2023-09-19T05:35:22;7.03;;;2.20;;
14748;SDS011;7466;53.574;9.976;2023-09-19T05:37:50;9.47;;;2.67;;
14748;SDS011;7466;53.574;9.976;2023-09-19T05:40:19;6.30;;;1.97;;
14748;SDS011;7466;53.574;9.976;2023-09-19T05:42:47;7.07;;;2.87;;
14748;SDS011;7466;53.574;9.976;2023-09-19T05:45:17;6.93;;;2.53;;
14748;SDS011;7466;53.574;9.976;2023-09-19T05:47:47;10.60;;;2.40;;
14748;SDS011;7466;53.574;9.976;2023-09-19T05:50:15;5.47;;;2.30;;
14748;SDS011;7466;53.574;9.976;2023-09-19T05:52:42;7.17;;;2.53;;
14748;SDS011;7466;53.574;9.976;2023-09-19T05:55:09;7.67;;;2.50;;
14748;SDS011;7466;53.574;9.976;2023-09-19T05:57:39;6.70;;;2.40;;
14748;SDS011;7466;53.574;9.976;2023-09-19T06:00:07;10.07;;;2.80;;
14748;SDS011;7466;53.574;9.976;2023-09-19T06:02:37;7.03;;;2.47;;
14748;SDS011;7466;53.574;9.976;2023-09-19T06:05:08;5.70;;;2.67;;
14748;SDS011;7466;53.574;9.976;2023-09-19T06:07:36;8.53;;;2.63;;
14748;SDS011;7466;53.574;9.976;2023-09-19T06:10:03;5.77;;;2.43;;
14748;SDS011;7466;53.574;9.976;2023-09-19T06:12:32;4.73;;;2.40;;
14748;SDS011;7466;53.574;9.976;2023-09-19T06:15:02;5.73;;;2.70;;
14748;SDS011;7466;53.574;9.976;2023-09-19T06:17:30;4.97;;;2.70;;
14748;SDS011;7466;53.574;9.976;2023-09-19T06:20:06;5.00;;;2.20;;
14748;SDS011;7466;53.574;9.976;2023-09-19T06:22:37;6.77;;;2.60;;
14748;SDS011;7466;53.574;9.976;2023-09-19T06:25:06;6.80;;;2.40;;
14748;SDS011;7466;53.574;9.976;2023-09-19T06:27:36;11.20;;;2.80;;
14748;SDS011;7466;53.574;9.976;2023-09-19T06:30:07;7.40;;;2.30;;
14748;SDS011;7466;53.574;9.976;2023-09-19T06:32:36;7.57;;;2.50;;
14748;SDS011;7466;53.574;9.976;2023-09-19T06:35:04;9.73;;;2.50;;
14748;SDS011;7466;53.574;9.976;2023-09-19T06:37:33;7.60;;;2.30;;
14748;SDS011;7466;53.574;9.976;2023-09-19T06:40:00;9.73;;;2.70;;
14748;SDS011;7466;53.574;9.976;2023-09-19T06:42:30;9.93;;;2.60;;
14748;SDS011;7466;53.574;9.976;2023-09-19T06:44:57;9.73;;;2.53;;
14748;SDS011;7466;53.574;9.976;2023-09-19T06:47:25;5.87;;;2.37;;
14748;SDS011;7466;53.574;9.976;2023-09-19T06:49:52;10.87;;;2.43;;
14748;SDS011;7466;53.574;9.976;2023-09-19T06:52:20;12.57;;;3.03;;
14748;SDS011;7466;53.574;9.976;2023-09-19T06:54:47;7.47;;;2.73;;
14748;SDS011;7466;53.574;9.976;2023-09-19T06:57:15;7.97;;;2.53;;
14748;SDS011;7466;53.574;9.976;2023-09-19T06:59:42;8.07;;;2.77;;
14748;SDS011;7466;53.574;9.976;2023-09-19T07:02:10;7.73;;;2.97;;
14748;SDS011;7466;53.574;9.976;2023-09-19T07:04:36;6.37;;;2.57;;
14748;SDS011;7466;53.574;9.976;2023-09-19T07:07:03;5.43;;;2.50;;
14748;SDS011;7466;53.574;9.976;2023-09-19T07:09:31;11.13;;;2.60;;
14748;SDS011;7466;53.574;9.976;2023-09-19T07:11:58;8.50;;;2.87;;
14748;SDS011;7466;53.574;9.976;2023-09-19T07:14:30;6.33;;;2.43;;
14748;SDS011;7466;53.574;9.976;2023-09-19T07:16:57;7.07;;;2.73;;
14748;SDS011;7466;53.574;9.976;2023-09-19T07:19:25;11.30;;;2.90;;
14748;SDS011;7466;53.574;9.976;2023-09-19T07:21:53;9.27;;;3.03;;
14748;SDS011;7466;53.574;9.976;2023-09-19T07:24:19;9.47;;;2.63;;
14748;SDS011;7466;53.574;9.976;2023-09-19T07:26:50;8.53;;;2.83;;
14748;SDS011;7466;53.574;9.976;2023-09-19T07:29:20;8.87;;;2.50;;
14748;SDS011;7466;53.574;9.976;2023-09-19T07:31:51;13.07;;;3.43;;
14748;SDS011;7466;53.574;9.976;2023-09-19T07:34:18;10.23;;;3.13;;
14748;SDS011;7466;53.574;9.976;2023-09-19T07:36:46;7.00;;;2.53;;
14748;SDS011;7466;53.574;9.976;2023-09-19T07:39:17;9.87;;;3.07;;
14748;SDS011;7466;53.574;9.976;2023-09-19T07:41:44;9.50;;;2.73;;
14748;SDS011;7466;53.574;9.976;2023-09-19T07:44:12;8.27;;;3.03;;
14748;SDS011;7466;53.574;9.976;2023-09-19T07:46:39;10.50;;;2.90;;
14748;SDS011;7466;53.574;9.976;2023-09-19T07:49:06;8.60;;;3.07;;
14748;SDS011;7466;53.574;9.976;2023-09-19T07:51:33;7.00;;;2.93;;
14748;SDS011;7466;53.574;9.976;2023-09-19T07:53:59;11.47;;;3.23;;
14748;SDS011;7466;53.574;9.976;2023-09-19T07:56:26;8.90;;;3.20;;
14748;SDS011;7466;53.574;9.976;2023-09-19T07:58:53;13.60;;;3.17;;
14748;SDS011;7466;53.574;9.976;2023-09-19T08:01:23;9.77;;;3.80;;
14748;SDS011;7466;53.574;9.976;2023-09-19T08:03:52;10.40;;;3.40;;
14748;SDS011;7466;53.574;9.976;2023-09-19T08:06:19;10.90;;;3.10;;
14748;SDS011;7466;53.574;9.976;2023-09-19T08:08:46;13.40;;;3.73;;
14748;SDS011;7466;53.574;9.976;2023-09-19T08:11:18;13.17;;;3.73;;
14748;SDS011;7466;53.574;9.976;2023-09-19T08:13:46;7.63;;;3.33;;
14748;SDS011;7466;53.574;9.976;2023-09-19T08:16:14;8.93;;;3.50;;
14748;SDS011;7466;53.574;9.976;2023-09-19T08:18:46;10.17;;;3.77;;
14748;SDS011;7466;53.574;9.976;2023-09-19T08:21:13;10.43;;;3.50;;
14748;SDS011;7466;53.574;9.976;2023-09-19T08:23:42;10.40;;;3.70;;
14748;SDS011;7466;53.574;9.976;2023-09-19T08:26:09;12.10;;;3.33;;
14748;SDS011;7466;53.574;9.976;2023-09-19T08:28:36;9.30;;;3.07;;
14748;SDS011;7466;53.574;9.976;2023-09-19T08:31:05;10.77;;;3.70;;
14748;SDS011;7466;53.574;9.976;2023-09-19T08:33:33;15.50;;;3.80;;
14748;SDS011;7466;53.574;9.976;2023-09-19T08:36:02;8.93;;;3.70;;
14748;SDS011;7466;53.574;9.976;2023-09-19T08:38:30;6.50;;;2.93;;
14748;SDS011;7466;53.574;9.976;2023-09-19T08:41:07;10.23;;;3.70;;
14748;SDS011;7466;53.574;9.976;2023-09-19T08:43:34;9.43;;;3.20;;
14748;SDS011;7466;53.574;9.976;2023-09-19T08:46:06;9.63;;;3.33;;
14748;SDS011;7466;53.574;9.976;2023-09-19T08:48:39;14.53;;;3.93;;
14748;SDS011;7466;53.574;9.976;2023-09-19T08:51:16;11.70;;;3.43;;
14748;SDS011;7466;53.574;9.976;2023-09-19T08:53:49;9.57;;;3.40;;
14748;SDS011;7466;53.574;9.976;2023-09-19T08:56:18;7.70;;;3.17;;
14748;SDS011;7466;53.574;9.976;2023-09-19T08:58:48;11.47;;;3.07;;
14748;SDS011;7466;53.574;9.976;2023-09-19T09:01:19;7.77;;;3.00;;
14748;SDS011;7466;53.574;9.976;2023-09-19T09:03:51;13.17;;;4.27;;
14748;SDS011;7466;53.574;9.976;2023-09-19T09:06:20;9.47;;;3.20;;
14748;SDS011;7466;53.574;9.976;2023-09-19T09:08:48;13.50;;;3.57;;
14748;SDS011;7466;53.574;9.976;2023-09-19T09:11:17;12.37;;;3.13;;
14748;SDS011;7466;53.574;9.976;2023-09-19T09:13:44;10.67;;;3.50;;
14748;SDS011;7466;53.574;9.976;2023-09-19T09:16:11;11.00;;;3.10;;
14748;SDS011;7466;53.574;9.976;2023-09-19T09:18:38;11.00;;;3.60;;
14748;SDS011;7466;53.574;9.976;2023-09-19T09:21:06;9.83;;;3.33;;
14748;SDS011;7466;53.574;9.976;2023-09-19T09:23:35;12.73;;;3.57;;
14748;SDS011;7466;53.574;9.976;2023-09-19T09:26:02;9.90;;;3.20;;
14748;SDS011;7466;53.574;9.976;2023-09-19T09:28:32;8.77;;;3.50;;
14748;SDS011;7466;53.574;9.976;2023-09-19T09:31:02;11.63;;;2.83;;
14748;SDS011;7466;53.574;9.976;2023-09-19T09:33:33;10.03;;;3.00;;
14748;SDS011;7466;53.574;9.976;2023-09-19T09:36:00;9.40;;;3.00;;
14748;SDS011;7466;53.574;9.976;2023-09-19T09:38:29;8.00;;;2.93;;
14748;SDS011;7466;53.574;9.976;2023-09-19T09:41:10;11.73;;;3.10;;
14748;SDS011;7466;53.574;9.976;2023-09-19T09:43:40;7.93;;;2.63;;
14748;SDS011;7466;53.574;9.976;2023-09-19T09:46:12;6.83;;;2.87;;
14748;SDS011;7466;53.574;9.976;2023-09-19T09:49:00;7.60;;;2.63;;
14748;SDS011;7466;53.574;9.976;2023-09-19T09:51:58;8.80;;;2.73;;
14748;SDS011;7466;53.574;9.976;2023-09-19T09:54:30;12.23;;;3.20;;
14748;SDS011;7466;53.574;9.976;2023-09-19T09:57:04;9.93;;;3.50;;
14748;SDS011;7466;53.574;9.976;2023-09-19T09:59:46;12.97;;;3.40;;
14748;SDS011;7466;53.574;9.976;2023-09-19T10:02:14;8.47;;;2.93;;
14748;SDS011;7466;53.574;9.976;2023-09-19T10:04:47;8.47;;;2.97;;
14748;SDS011;7466;53.574;9.976;2023-09-19T10:07:28;8.80;;;2.93;;
14748;SDS011;7466;53.574;9.976;2023-09-19T10:10:01;10.50;;;2.80;;
14748;SDS011;7466;53.574;9.976;2023-09-19T10:12:40;9.27;;;2.60;;
14748;SDS011;7466;53.574;9.976;2023-09-19T10:15:11;8.57;;;2.53;;
14748;SDS011;7466;53.574;9.976;2023-09-19T10:17:41;8.47;;;2.47;;
14748;SDS011;7466;53.574;9.976;2023-09-19T10:20:10;9.20;;;2.50;;
14748;SDS011;7466;53.574;9.976;2023-09-19T10:23:00;9.37;;;2.83;;
14748;SDS011;7466;53.574;9.976;2023-09-19T10:25:34;8.90;;;2.60;;
14748;SDS011;7466;53.574;9.976;2023-09-19T10:28:05;7.47;;;2.67;;
14748;SDS011;7466;53.574;9.976;2023-09-19T10:30:36;6.70;;;2.80;;
14748;SDS011;7466;53.574;9.976;2023-09-19T10:33:08;6.60;;;2.53;;
14748;SDS011;7466;53.574;9.976;2023-09-19T10:35:37;6.57;;;2.27;;
14748;SDS011;7466;53.574;9.976;2023-09-19T10:38:06;5.93;;;2.63;;
14748;SDS011;7466;53.574;9.976;2023-09-19T10:40:35;5.97;;;2.60;;
14748;SDS011;7466;53.574;9.976;2023-09-19T10:43:11;7.40;;;2.43;;
14748;SDS011;7466;53.574;9.976;2023-09-19T10:45:42;4.43;;;2.40;;
14748;SDS011;7466;53.574;9.976;2023-09-19T10:48:12;6.50;;;2.37;;
14748;SDS011;7466;53.574;9.976;2023-09-19T10:50:50;6.03;;;2.00;;
14748;SDS011;7466;53.574;9.976;2023-09-19T10:53:20;5.67;;;2.47;;
14748;SDS011;7466;53.574;9.976;2023-09-19T10:55:49;6.77;;;2.70;;
14748;SDS011;7466;53.574;9.976;2023-09-19T10:58:28;6.50;;;2.20;;
14748;SDS011;7466;53.574;9.976;2023-09-19T11:00:56;9.13;;;2.80;;
14748;SDS011;7466;53.574;9.976;2023-09-19T11:03:30;6.43;;;2.90;;
14748;SDS011;7466;53.574;9.976;2023-09-19T11:06:02;8.53;;;2.73;;
14748;SDS011;7466;53.574;9.976;2023-09-19T11:11:41;6.23;;;2.50;;
14748;SDS011;7466;53.574;9.976;2023-09-19T11:14:32;9.87;;;2.67;;
14748;SDS011;7466;53.574;9.976;2023-09-19T11:17:29;4.00;;;2.50;;
14748;SDS011;7466;53.574;9.976;2023-09-19T11:20:15;6.50;;;2.80;;
14748;SDS011;7466;53.574;9.976;2023-09-19T11:25:52;5.40;;;2.30;;
14748;SDS011;7466;53.574;9.976;2023-09-19T11:28:28;9.60;;;2.40;;
14748;SDS011;7466;53.574;9.976;2023-09-19T11:31:40;6.77;;;2.63;;
14748;SDS011;7466;53.574;9.976;2023-09-19T11:40:44;4.70;;;2.53;;
14748;SDS011;7466;53.574;9.976;2023-09-19T11:43:31;6.47;;;2.47;;
14748;SDS011;7466;53.574;9.976;2023-09-19T11:46:09;8.50;;;2.80;;
14748;SDS011;7466;53.574;9.976;2023-09-19T11:48:38;7.20;;;2.63;;
14748;SDS011;7466;53.574;9.976;2023-09-19T11:51:16;7.03;;;2.70;;
14748;SDS011;7466;53.574;9.976;2023-09-19T11:53:51;11.13;;;2.67;;
14748;SDS011;7466;53.574;9.976;2023-09-19T11:56:22;7.53;;;3.23;;
14748;SDS011;7466;53.574;9.976;2023-09-19T11:58:51;8.70;;;3.03;;
14748;SDS011;7466;53.574;9.976;2023-09-19T12:01:23;6.07;;;2.43;;
14748;SDS011;7466;53.574;9.976;2023-09-19T12:04:03;6.97;;;2.97;;
14748;SDS011;7466;53.574;9.976;2023-09-19T12:06:37;6.93;;;2.73;;
14748;SDS011;7466;53.574;9.976;2023-09-19T12:09:07;10.70;;;2.80;;
14748;SDS011;7466;53.574;9.976;2023-09-19T12:11:42;8.90;;;2.87;;
14748;SDS011;7466;53.574;9.976;2023-09-19T12:14:10;8.97;;;2.93;;
14748;SDS011;7466;53.574;9.976;2023-09-19T12:16:38;7.53;;;2.57;;
14748;SDS011;7466;53.574;9.976;2023-09-19T12:19:17;7.70;;;3.03;;
14748;SDS011;7466;53.574;9.976;2023-09-19T12:21:52;8.70;;;3.33;;
14748;SDS011;7466;53.574;9.976;2023-09-19T12:24:24;7.13;;;2.80;;
14748;SDS011;7466;53.574;9.976;2023-09-19T12:26:54;8.27;;;2.90;;
14748;SDS011;7466;53.574;9.976;2023-09-19T12:29:29;7.93;;;3.10;;
14748;SDS011;7466;53.574;9.976;2023-09-19T12:31:58;5.43;;;3.27;;
14748;SDS011;7466;53.574;9.976;2023-09-19T12:34:29;6.77;;;2.53;;
14748;SDS011;7466;53.574;9.976;2023-09-19T12:37:06;7.80;;;3.50;;
14748;SDS011;7466;53.574;9.976;2023-09-19T12:39:42;10.77;;;2.90;;
14748;SDS011;7466;53.574;9.976;2023-09-19T12:42:14;7.13;;;3.10;;
14748;SDS011;7466;53.574;9.976;2023-09-19T12:44:42;8.37;;;3.30;;
14748;SDS011;7466;53.574;9.976;2023-09-19T12:47:12;8.33;;;3.13;;
14748;SDS011;7466;53.574;9.976;2023-09-19T12:52:40;10.07;;;3.30;;
14748;SDS011;7466;53.574;9.976;2023-09-19T12:55:07;9.07;;;3.27;;
14748;SDS011;7466;53.574;9.976;2023-09-19T12:57:36;11.50;;;3.40;;
14748;SDS011;7466;53.574;9.976;2023-09-19T13:00:04;6.40;;;2.90;;
14748;SDS011;7466;53.574;9.976;2023-09-19T13:02:34;14.73;;;4.00;;
14748;SDS011;7466;53.574;9.976;2023-09-19T13:05:00;8.47;;;2.90;;
14748;SDS011;7466;53.574;9.976;2023-09-19T13:07:41;6.97;;;3.10;;
14748;SDS011;7466;53.574;9.976;2023-09-19T13:10:12;9.83;;;2.90;;
14748;SDS011;7466;53.574;9.976;2023-09-19T13:12:41;8.40;;;2.90;;
14748;SDS011;7466;53.574;9.976;2023-09-19T13:15:13;6.77;;;3.20;;
14748;SDS011;7466;53.574;9.976;2023-09-19T13:17:48;6.10;;;2.80;;
14748;SDS011;7466;53.574;9.976;2023-09-19T13:20:22;6.80;;;2.60;;
14748;SDS011;7466;53.574;9.976;2023-09-19T13:22:52;10.80;;;3.33;;
14748;SDS011;7466;53.574;9.976;2023-09-19T13:25:23;6.80;;;2.83;;
14748;SDS011;7466;53.574;9.976;2023-09-19T13:27:52;8.87;;;2.80;;
14748;SDS011;7466;53.574;9.976;2023-09-19T13:30:21;8.23;;;3.00;;
14748;SDS011;7466;53.574;9.976;2023-09-19T13:32:51;6.83;;;3.13;;
14748;SDS011;7466;53.574;9.976;2023-09-19T13:35:19;5.57;;;2.70;;
14748;SDS011;7466;53.574;9.976;2023-09-19T13:37:53;5.70;;;3.20;;
14748;SDS011;7466;53.574;9.976;2023-09-19T13:40:20;10.27;;;3.10;;
14748;SDS011;7466;53.574;9.976;2023-09-19T13:42:47;5.73;;;2.97;;
14748;SDS011;7466;53.574;9.976;2023-09-19T13:45:18;5.40;;;3.00;;
14748;SDS011;7466;53.574;9.976;2023-09-19T13:47:47;7.37;;;3.13;;
14748;SDS011;7466;53.574;9.976;2023-09-19T13:50:18;7.40;;;2.70;;
14748;SDS011;7466;53.574;9.976;2023-09-19T13:52:49;5.80;;;2.90;;
14748;SDS011;7466;53.574;9.976;2023-09-19T13:55:16;6.50;;;2.97;;
14748;SDS011;7466;53.574;9.976;2023-09-19T13:57:46;7.40;;;2.83;;
14748;SDS011;7466;53.574;9.976;2023-09-19T14:00:15;6.77;;;3.13;;
14748;SDS011;7466;53.574;9.976;2023-09-19T14:02:42;5.60;;;2.90;;
14748;SDS011;7466;53.574;9.976;2023-09-19T14:05:11;7.67;;;2.83;;
14748;SDS011;7466;53.574;9.976;2023-09-19T14:07:43;9.03;;;3.00;;
14748;SDS011;7466;53.574;9.976;2023-09-19T14:10:12;7.53;;;2.70;;
14748;SDS011;7466;53.574;9.976;2023-09-19T14:12:39;6.17;;;2.67;;
14748;SDS011;7466;53.574;9.976;2023-09-19T14:15:07;6.17;;;3.00;;
14748;SDS011;7466;53.574;9.976;2023-09-19T14:17:35;7.33;;;3.50;;
14748;SDS011;7466;53.574;9.976;2023-09-19T14:20:02;8.60;;;3.17;;
14748;SDS011;7466;53.574;9.976;2023-09-19T14:22:31;7.03;;;3.20;;
14748;SDS011;7466;53.574;9.976;2023-09-19T14:24:59;7.00;;;2.73;;
14748;SDS011;7466;53.574;9.976;2023-09-19T14:27:26;8.73;;;3.40;;
14748;SDS011;7466;53.574;9.976;2023-09-19T14:29:53;6.63;;;3.23;;
14748;SDS011;7466;53.574;9.976;2023-09-19T14:32:22;8.53;;;2.80;;
14748;SDS011;7466;53.574;9.976;2023-09-19T14:34:49;9.00;;;3.10;;
14748;SDS011;7466;53.574;9.976;2023-09-19T14:37:17;8.83;;;2.90;;
14748;SDS011;7466;53.574;9.976;2023-09-19T14:39:46;10.67;;;2.97;;
14748;SDS011;7466;53.574;9.976;2023-09-19T14:42:17;8.10;;;3.20;;
14748;SDS011;7466;53.574;9.976;2023-09-19T14:44:44;7.83;;;2.87;;
14748;SDS011;7466;53.574;9.976;2023-09-19T14:47:12;8.67;;;2.87;;
14748;SDS011;7466;53.574;9.976;2023-09-19T14:49:39;8.33;;;3.20;;
14748;SDS011;7466;53.574;9.976;2023-09-19T14:52:08;7.83;;;3.10;;
14748;SDS011;7466;53.574;9.976;2023-09-19T14:54:37;6.47;;;2.53;;
14748;SDS011;7466;53.574;9.976;2023-09-19T14:57:06;7.60;;;2.90;;
14748;SDS011;7466;53.574;9.976;2023-09-19T14:59:35;6.20;;;2.80;;
14748;SDS011;7466;53.574;9.976;2023-09-19T15:02:02;11.93;;;3.40;;
14748;SDS011;7466;53.574;9.976;2023-09-19T15:04:30;7.73;;;3.20;;
14748;SDS011;7466;53.574;9.976;2023-09-19T15:06:56;8.90;;;2.90;;
14748;SDS011;7466;53.574;9.976;2023-09-19T15:09:24;8.40;;;2.80;;
14748;SDS011;7466;53.574;9.976;2023-09-19T15:11:51;9.40;;;2.63;;
14748;SDS011;7466;53.574;9.976;2023-09-19T15:14:18;6.87;;;2.73;;
14748;SDS011;7466;53.574;9.976;2023-09-19T15:16:47;9.60;;;3.13;;
14748;SDS011;7466;53.574;9.976;2023-09-19T15:19:14;6.07;;;2.83;;
14748;SDS011;7466;53.574;9.976;2023-09-19T15:21:42;9.07;;;3.30;;
14748;SDS011;7466;53.574;9.976;2023-09-19T15:24:09;10.93;;;2.97;;
14748;SDS011;7466;53.574;9.976;2023-09-19T15:26:36;6.77;;;3.00;;
14748;SDS011;7466;53.574;9.976;2023-09-19T15:29:06;10.70;;;3.17;;
14748;SDS011;7466;53.574;9.976;2023-09-19T15:31:36;9.67;;;3.03;;
14748;SDS011;7466;53.574;9.976;2023-09-19T15:34:06;8.83;;;3.40;;
14748;SDS011;7466;53.574;9.976;2023-09-19T15:36:39;8.53;;;3.23;;